Time;durP1;ratioP1;P1;durP2;ratioP2;P2;SDS_P1;SDS_P2;PMS_P1;PMS_P2;Temp;Humidity;BMP_temperature;BMP_pressure;BME280_temperature;BME280_humidity;BME280_pressure;Samples;Min_cycle;Max_cycle;Signal;HPM_P1;HPM_P2
2024/01/14 00:03:10;;;;;;;27.23;11.43;;;;;;;0.04;100.00;100088.88;10446121;28;20819;-80
2024/01/14 00:08:13;;;;;;;27.13;11.20;;;;;;;0.03;100.00;100090.66;10456190;28;20522;-78
2024/01/14 00:13:17;;;;;;;21.92;10.05;;;;;;;0.14;100.00;100091.06;10459654;28;20040;-80
2024/01/14 00:18:20;;;;;;;29.95;11.68;;;;;;;0.27;100.00;100079.97;10455315;28;20051;-81
2024/01/14 00:23:24;;;;;;;23.15;9.60;;;;;;;-0.22;100.00;100076.75;10474310;28;21324;-80
2024/01/14 00:28:28;;;;;;;24.52;7.90;;;;;;;-0.11;100.00;100069.25;10455478;28;20423;-81
2024/01/14 00:33:31;;;;;;;35.35;13.88;;;;;;;0.08;100.00;100069.31;10444496;28;21268;-82
2024/01/14 00:38:35;;;;;;;51.85;18.90;;;;;;;0.07;100.00;100071.13;10460847;28;20572;-81
2024/01/14 00:43:40;;;;;;;50.00;19.45;;;;;;;0.12;100.00;100052.44;10458040;28;20496;-80
2024/01/14 00:48:43;;;;;;;53.15;20.80;;;;;;;0.01;100.00;100055.53;10462607;28;20045;-80
2024/01/14 00:53:46;;;;;;;36.97;14.32;;;;;;;0.16;100.00;100068.09;10458848;28;20044;-79
2024/01/14 00:58:51;;;;;;;39.65;14.27;;;;;;;0.09;100.00;100045.50;10472786;28;20055;-80
2024/01/14 01:03:54;;;;;;;48.25;19.27;;;;;;;0.17;100.00;100048.69;10471158;28;20428;-81
2024/01/14 01:08:57;;;;;;;56.40;22.00;;;;;;;0.31;100.00;100039.28;10482512;28;21246;-82
2024/01/14 01:14:02;;;;;;;40.10;16.15;;;;;;;0.21;100.00;100030.03;10469784;28;20065;-82
2024/01/14 01:19:05;;;;;;;39.03;15.38;;;;;;;0.27;100.00;100024.47;10457457;28;20280;-80
2024/01/14 01:24:12;;;;;;;38.00;15.18;;;;;;;0.36;100.00;100029.38;10462274;28;20206;-80
2024/01/14 01:29:16;;;;;;;30.98;11.55;;;;;;;0.52;100.00;100017.19;10475129;28;20064;-79
2024/01/14 01:34:19;;;;;;;26.52;11.35;;;;;;;0.21;100.00;100024.75;10472580;28;20052;-80
2024/01/14 01:39:22;;;;;;;24.42;10.68;;;;;;;0.06;100.00;100000.75;10465907;28;20055;-81
2024/01/14 01:44:27;;;;;;;22.92;10.68;;;;;;;0.02;100.00;100009.72;10476203;28;20539;-82
2024/01/14 01:49:31;;;;;;;22.17;9.00;;;;;;;0.03;100.00;99998.25;10455497;28;20087;-80
2024/01/14 01:54:36;;;;;;;19.50;9.57;;;;;;;-0.02;100.00;100000.22;10460154;28;20102;-81
2024/01/14 01:59:45;;;;;;;30.52;13.02;;;;;;;0.08;100.00;99996.25;10462619;28;20045;-80
2024/01/14 02:04:48;;;;;;;47.42;14.90;;;;;;;0.09;100.00;99990.03;10463760;28;20052;-81
2024/01/14 02:09:52;;;;;;;60.28;25.85;;;;;;;0.39;100.00;99963.19;10470041;28;20044;-81
2024/01/14 02:14:57;;;;;;;54.72;22.42;;;;;;;0.33;100.00;99964.31;10476641;28;20052;-81
2024/01/14 02:20:00;;;;;;;52.30;19.75;;;;;;;0.23;100.00;99964.81;10475719;28;20041;-82
2024/01/14 02:25:05;;;;;;;40.53;17.00;;;;;;;0.45;100.00;99949.69;10481568;28;20063;-82
2024/01/14 02:30:10;;;;;;;53.78;21.10;;;;;;;0.42;100.00;99952.47;10444749;28;20104;-83
2024/01/14 02:35:13;;;;;;;49.00;18.58;;;;;;;0.60;100.00;99948.09;10477941;28;20048;-82
2024/01/14 02:40:18;;;;;;;53.30;20.58;;;;;;;0.21;100.00;99934.94;10478232;28;20052;-82
2024/01/14 02:45:21;;;;;;;56.05;22.58;;;;;;;0.50;100.00;99921.25;10476281;28;20397;-80
2024/01/14 02:50:24;;;;;;;51.42;19.05;;;;;;;0.24;100.00;99922.44;10470991;28;20763;-81
2024/01/14 02:55:28;;;;;;;41.58;16.88;;;;;;;0.11;100.00;99923.94;10484129;28;20076;-82
2024/01/14 03:00:31;;;;;;;41.15;14.35;;;;;;;0.21;100.00;99921.75;10473413;28;20055;-81
2024/01/14 03:05:34;;;;;;;43.45;17.77;;;;;;;0.06;100.00;99925.94;10477402;28;21170;-80
2024/01/14 03:10:39;;;;;;;45.95;17.55;;;;;;;0.16;100.00;99912.25;10469704;28;20052;-81
2024/01/14 03:15:42;;;;;;;27.90;12.07;;;;;;;0.28;100.00;99905.53;10472186;28;20393;-80
2024/01/14 03:20:45;;;;;;;46.90;19.42;;;;;;;0.31;100.00;99892.19;10481777;28;20117;-82
2024/01/14 03:25:50;;;;;;;38.80;14.95;;;;;;;0.21;100.00;99896.16;10472802;28;20056;-82
2024/01/14 03:30:53;;;;;;;33.63;13.25;;;;;;;0.60;100.00;99898.75;10473775;28;20044;-80
2024/01/14 03:35:56;;;;;;;47.97;19.33;;;;;;;0.64;100.00;99888.03;10478287;28;20564;-81
2024/01/14 03:41:01;;;;;;;48.38;18.35;;;;;;;0.59;100.00;99893.53;10476573;28;20048;-81
2024/01/14 03:46:04;;;;;;;36.92;15.32;;;;;;;0.33;100.00;99884.16;10500365;28;20063;-82
2024/01/14 03:51:08;;;;;;;35.67;15.40;;;;;;;0.01;100.00;99896.22;10475601;28;20052;-81
2024/01/14 03:56:12;;;;;;;36.47;12.57;;;;;;;0.02;100.00;99882.94;10470554;28;20088;-85
2024/01/14 04:01:18;;;;;;;29.75;12.40;;;;;;;0.15;100.00;99894.66;10484504;28;20083;-81
2024/01/14 04:06:23;;;;;;;40.20;15.77;;;;;;;0.36;100.00;99884.91;10466191;28;20076;-79
2024/01/14 04:11:28;;;;;;;25.10;10.40;;;;;;;-0.06;100.00;99872.72;10483044;28;20044;-80
2024/01/14 04:16:36;;;;;;;30.45;13.65;;;;;;;0.36;100.00;99886.69;10474774;28;20696;-81
2024/01/14 04:21:39;;;;;;;57.30;22.50;;;;;;;0.35;100.00;99872.59;10434229;28;21189;-81
2024/01/14 04:26:44;;;;;;;53.38;20.52;;;;;;;0.63;100.00;99876.56;10474945;28;20082;-81
2024/01/14 04:31:46;;;;;;;57.22;20.38;;;;;;;0.27;100.00;99877.38;10489191;28;20126;-81
2024/01/14 04:36:49;;;;;;;53.38;19.98;;;;;;;0.54;100.00;99883.16;10472586;28;20414;-80
2024/01/14 04:41:54;;;;;;;60.72;19.80;;;;;;;1.01;100.00;99879.16;10473834;28;20040;-83
2024/01/14 04:46:57;;;;;;;50.83;19.42;;;;;;;0.49;100.00;99882.53;10472232;28;20044;-81
2024/01/14 04:52:00;;;;;;;47.67;17.77;;;;;;;0.31;100.00;99857.84;10476578;28;20052;-82
2024/01/14 04:57:05;;;;;;;42.75;15.88;;;;;;;0.33;100.00;99858.63;10474217;28;20190;-82
2024/01/14 05:02:08;;;;;;;46.10;15.95;;;;;;;0.54;100.00;99856.72;10474278;28;20048;-78
2024/01/14 05:07:11;;;;;;;46.30;16.70;;;;;;;0.32;100.00;99859.53;10466265;28;20055;-81
2024/01/14 05:12:15;;;;;;;51.08;18.27;;;;;;;0.57;100.00;99864.50;10466345;28;20040;-82
2024/01/14 05:17:18;;;;;;;46.47;15.00;;;;;;;0.56;100.00;99854.88;10465813;28;20099;-82
2024/01/14 05:22:22;;;;;;;66.50;20.80;;;;;;;0.52;100.00;99853.34;10474738;28;20044;-81
2024/01/14 05:27:26;;;;;;;52.05;19.67;;;;;;;0.10;100.00;99843.00;10472965;28;20680;-81
2024/01/14 05:32:29;;;;;;;64.60;22.20;;;;;;;0.56;100.00;99844.31;10477816;28;20059;-81
2024/01/14 05:37:32;;;;;;;38.33;13.50;;;;;;;0.55;100.00;99842.63;10459032;28;20052;-79
2024/01/14 05:42:40;;;;;;;39.17;16.80;;;;;;;0.60;100.00;99839.72;10470826;28;20059;-82
2024/01/14 05:47:43;;;;;;;32.40;12.50;;;;;;;0.25;100.00;99822.91;10431410;28;20064;-81
2024/01/14 05:52:46;;;;;;;46.63;18.23;;;;;;;0.37;100.00;99831.13;10477188;28;20044;-80
2024/01/14 05:57:50;;;;;;;58.92;20.63;;;;;;;0.47;100.00;99823.63;10481873;28;21213;-82
2024/01/14 06:02:53;;;;;;;63.95;24.15;;;;;;;0.33;100.00;99829.56;10482305;28;20044;-82
2024/01/14 06:07:57;;;;;;;44.50;14.27;;;;;;;0.20;100.00;99832.88;10483833;28;20055;-80
2024/01/14 06:13:01;;;;;;;53.08;21.13;;;;;;;0.18;100.00;99809.16;10480876;28;21110;-81
2024/01/14 06:18:05;;;;;;;49.30;20.52;;;;;;;0.41;100.00;99821.25;10489831;28;20048;-81
2024/01/14 06:23:08;;;;;;;43.20;15.18;;;;;;;0.50;100.00;99828.75;10475065;28;20127;-82
2024/01/14 06:28:12;;;;;;;39.88;15.57;;;;;;;0.64;100.00;99828.09;10489964;28;20047;-82
2024/01/14 06:33:15;;;;;;;37.00;14.75;;;;;;;0.15;100.00;99836.56;10487827;28;20419;-82
2024/01/14 06:38:19;;;;;;;31.17;10.55;;;;;;;0.38;100.00;99813.47;10478689;28;20050;-82
2024/01/14 06:43:23;;;;;;;39.47;15.45;;;;;;;0.49;100.00;99812.97;10481904;28;21225;-81
2024/01/14 06:48:26;;;;;;;24.98;8.77;;;;;;;0.50;100.00;99812.91;10476930;28;20443;-81
2024/01/14 06:53:29;;;;;;;26.60;11.70;;;;;;;0.25;100.00;99807.06;10484970;28;20054;-80
2024/01/14 06:58:33;;;;;;;44.58;16.90;;;;;;;0.26;100.00;99811.44;10481117;28;20051;-79
2024/01/14 07:03:36;;;;;;;38.42;14.77;;;;;;;0.33;100.00;99807.56;10484269;28;20045;-82
2024/01/14 07:08:40;;;;;;;46.13;19.60;;;;;;;0.26;100.00;99793.78;10476032;28;20052;-82
2024/01/14 07:13:44;;;;;;;48.50;18.23;;;;;;;0.59;100.00;99806.31;10479051;28;20055;-81
2024/01/14 07:18:47;;;;;;;55.65;16.55;;;;;;;0.47;100.00;99805.13;10468611;28;20059;-80
2024/01/14 07:23:50;;;;;;;36.15;13.77;;;;;;;0.13;100.00;99816.44;10470464;28;20613;-79
2024/01/14 07:28:55;;;;;;;32.05;12.57;;;;;;;0.13;100.00;99806.72;10480643;28;20178;-80
2024/01/14 07:33:58;;;;;;;31.98;13.05;;;;;;;-0.20;100.00;99788.03;10485069;28;20183;-81
2024/01/14 07:39:03;;;;;;;27.05;10.55;;;;;;;0.12;100.00;99806.81;10480425;28;20051;-81
2024/01/14 07:44:07;;;;;;;31.25;12.73;;;;;;;0.12;100.00;99810.28;10485231;28;20124;-83
2024/01/14 07:49:10;;;;;;;38.65;16.60;;;;;;;0.38;100.00;99808.19;10484754;28;20052;-80
2024/01/14 07:54:13;;;;;;;33.45;13.75;;;;;;;0.03;100.00;99818.66;10471166;28;20056;-82
2024/01/14 07:59:20;;;;;;;33.95;12.55;;;;;;;0.15;100.00;99811.94;10482227;28;20056;-82
2024/01/14 08:04:23;;;;;;;32.40;12.10;;;;;;;-0.08;100.00;99808.59;10477517;28;20059;-81
2024/01/14 08:09:26;;;;;;;34.97;13.07;;;;;;;-0.03;100.00;99805.72;10496402;28;20116;-81
2024/01/14 08:14:31;;;;;;;33.92;13.95;;;;;;;-0.06;100.00;99808.50;10480029;28;20578;-83
2024/01/14 08:19:34;;;;;;;29.08;13.23;;;;;;;0.39;100.00;99802.00;10466373;28;20044;-80
2024/01/14 08:24:38;;;;;;;48.78;16.92;;;;;;;0.49;100.00;99805.88;10471004;28;20386;-78
2024/01/14 08:29:42;;;;;;;33.38;13.25;;;;;;;-0.56;100.00;99806.38;10474778;28;20059;-83
2024/01/14 08:34:45;;;;;;;37.90;13.65;;;;;;;-0.40;100.00;99796.00;10472747;28;20116;-82
2024/01/14 08:39:50;;;;;;;54.95;20.25;;;;;;;0.17;100.00;99799.53;10459419;28;20056;-82
2024/01/14 08:44:54;;;;;;;53.60;18.58;;;;;;;0.12;100.00;99797.09;10461231;28;20056;-80
2024/01/14 08:49:57;;;;;;;57.10;20.98;;;;;;;-0.12;100.00;99800.88;10471748;28;20422;-77
2024/01/14 08:55:01;;;;;;;33.67;12.35;;;;;;;0.06;100.00;99786.81;10461651;28;20609;-80
2024/01/14 09:00:06;;;;;;;43.47;16.17;;;;;;;-0.29;100.00;99781.38;10473611;28;20040;-82
2024/01/14 09:05:10;;;;;;;47.63;18.63;;;;;;;0.05;100.00;99779.81;10457373;28;21359;-79
2024/01/14 09:10:13;;;;;;;27.80;12.65;;;;;;;-0.04;100.00;99785.53;10478740;28;20048;-78
2024/01/14 09:15:18;;;;;;;40.95;15.43;;;;;;;0.02;100.00;99790.53;10471721;28;20075;-78
2024/01/14 09:20:21;;;;;;;38.63;15.10;;;;;;;0.07;100.00;99772.69;10467762;28;20258;-79
2024/01/14 09:25:24;;;;;;;38.55;15.52;;;;;;;0.11;100.00;99774.25;10476384;28;20524;-77
2024/01/14 09:30:28;;;;;;;53.58;16.52;;;;;;;0.12;100.00;99785.66;10470815;28;20613;-82
2024/01/14 09:35:34;;;;;;;63.47;23.13;;;;;;;0.17;100.00;99775.75;10474314;28;20446;-80
2024/01/14 09:40:37;;;;;;;62.15;20.98;;;;;;;0.04;100.00;99778.09;10475111;28;20047;-80
2024/01/14 09:45:42;;;;;;;43.45;14.32;;;;;;;-0.01;100.00;99779.25;10472926;28;20052;-80
2024/01/14 09:50:52;;;;;;;41.63;12.63;;;;;;;0.24;100.00;99774.50;10465807;28;20059;-80
2024/01/14 09:55:57;;;;;;;39.67;15.95;;;;;;;-0.18;100.00;99777.41;10471899;28;20136;-81
2024/01/14 10:01:04;;;;;;;34.38;14.95;;;;;;;-0.12;100.00;99771.81;10474926;28;20053;-80
2024/01/14 10:06:08;;;;;;;33.05;13.32;;;;;;;-0.37;100.00;99775.59;10477084;28;21497;-82
2024/01/14 10:11:11;;;;;;;41.13;16.17;;;;;;;-0.03;100.00;99758.19;10470084;28;20048;-80
2024/01/14 10:16:16;;;;;;;30.63;13.38;;;;;;;-0.02;100.00;99752.00;10477737;28;20056;-81
2024/01/14 10:21:41;;;;;;;33.70;12.32;;;;;;;-0.28;100.00;99734.72;10478748;28;20055;-81
2024/01/14 10:26:44;;;;;;;41.50;15.30;;;;;;;-0.03;100.00;99739.69;10459566;28;20116;-80
2024/01/14 10:31:49;;;;;;;30.42;12.00;;;;;;;-0.24;100.00;99736.31;10467044;28;20044;-80
2024/01/14 10:36:52;;;;;;;31.67;11.73;;;;;;;-0.08;100.00;99733.81;10459276;28;20420;-80
2024/01/14 10:41:55;;;;;;;36.90;14.98;;;;;;;-0.31;100.00;99727.81;10481984;28;20044;-83
2024/01/14 10:47:04;;;;;;;45.75;15.77;;;;;;;0.06;100.00;99719.94;10469212;28;20056;-80
2024/01/14 10:52:11;;;;;;;61.20;21.83;;;;;;;0.09;100.00;99718.00;10460884;28;20194;-79
2024/01/14 10:57:30;;;;;;;47.47;15.30;;;;;;;0.18;100.00;99711.41;10475560;28;20053;-80
2024/01/14 11:02:36;;;;;;;23.52;10.20;;;;;;;0.06;100.00;99697.03;10474742;28;20053;-80
2024/01/14 11:07:40;;;;;;;27.00;10.57;;;;;;;-0.12;100.00;99692.63;10470128;28;20048;-80
2024/01/14 11:12:50;;;;;;;31.60;13.02;;;;;;;0.16;100.00;99685.09;10457562;28;20052;-81
2024/01/14 11:18:02;;;;;;;14.02;5.78;;;;;;;-0.04;100.00;99685.19;10483214;28;20060;-79
2024/01/14 11:23:05;;;;;;;22.10;8.88;;;;;;;-0.52;100.00;99683.97;10469537;28;20052;-80
2024/01/14 11:28:08;;;;;;;16.10;7.85;;;;;;;-0.08;100.00;99666.00;10462588;28;21215;-79
2024/01/14 11:33:39;;;;;;;24.50;10.75;;;;;;;-0.03;100.00;99655.22;10463915;28;20143;-80
2024/01/14 11:38:56;;;;;;;18.60;8.60;;;;;;;-0.11;100.00;99633.59;10485387;28;20052;-80
2024/01/14 11:44:03;;;;;;;16.27;5.70;;;;;;;0.08;100.00;99628.28;10463142;28;20054;-80
2024/01/14 11:49:10;;;;;;;19.63;7.97;;;;;;;-0.19;100.00;99625.19;10475900;28;20044;-80
2024/01/14 11:54:27;;;;;;;15.80;7.57;;;;;;;-0.09;100.00;99616.75;10487255;28;20143;-80
2024/01/14 11:59:31;;;;;;;9.73;5.43;;;;;;;-0.28;100.00;99602.75;10479650;28;20103;-80
2024/01/14 12:04:45;;;;;;;20.95;7.70;;;;;;;-0.24;100.00;99596.41;10474742;28;20052;-80
2024/01/14 12:09:59;;;;;;;21.85;10.15;;;;;;;-0.39;100.00;99579.53;10486371;28;20071;-81
2024/01/14 12:15:02;;;;;;;30.38;11.27;;;;;;;-0.10;100.00;99564.06;10486469;28;20515;-81
2024/01/14 12:20:08;;;;;;;20.48;9.18;;;;;;;-0.16;100.00;99561.72;10466902;28;20922;-80
2024/01/14 12:25:11;;;;;;;11.00;5.82;;;;;;;-0.29;100.00;99559.69;10477852;28;20036;-80
2024/01/14 12:30:24;;;;;;;18.42;7.75;;;;;;;0.15;100.00;99540.75;10473288;28;20059;-81
2024/01/14 12:35:36;;;;;;;28.27;10.82;;;;;;;-0.10;100.00;99530.56;10491046;28;20043;-80
2024/01/14 12:40:39;;;;;;;19.65;7.75;;;;;;;-0.11;100.00;99523.59;10468379;28;20052;-82
2024/01/14 12:45:47;;;;;;;23.27;10.43;;;;;;;-0.25;100.00;99518.13;10453593;28;20051;-79
2024/01/14 12:50:57;;;;;;;14.35;8.77;;;;;;;-0.14;100.00;99502.66;10479654;28;20052;-81
2024/01/14 12:56:11;;;;;;;27.08;12.70;;;;;;;-0.11;100.00;99502.47;10464444;28;20188;-80
2024/01/14 13:01:14;;;;;;;24.98;10.82;;;;;;;-0.63;100.00;99533.22;10475648;28;20048;-80
2024/01/14 13:06:18;;;;;;;30.77;12.73;;;;;;;-0.65;100.00;99475.28;10477795;28;20044;-81
2024/01/14 13:11:21;;;;;;;33.08;12.60;;;;;;;-0.43;100.00;99471.59;10479084;28;20048;-81
2024/01/14 13:16:24;;;;;;;26.85;11.63;;;;;;;-0.58;100.00;99457.34;10495119;28;20082;-79
2024/01/14 13:21:29;;;;;;;21.48;8.70;;;;;;;-0.21;100.00;99453.72;10481422;28;20052;-81
2024/01/14 13:26:32;;;;;;;40.72;16.83;;;;;;;-0.17;100.00;99449.13;10469827;28;21658;-81
2024/01/14 13:31:37;;;;;;;32.30;14.07;;;;;;;-0.28;100.00;99433.84;10468934;28;20048;-80
2024/01/14 13:36:42;;;;;;;36.10;14.75;;;;;;;-0.64;100.00;99431.28;10479391;28;20056;-79
2024/01/14 13:41:45;;;;;;;45.55;18.23;;;;;;;-0.17;100.00;99431.50;10475901;28;20056;-80
2024/01/14 13:46:48;;;;;;;47.65;16.02;;;;;;;-0.19;100.00;99419.31;10466640;28;20063;-81
2024/01/14 13:51:53;;;;;;;38.80;15.02;;;;;;;-0.59;100.00;99409.03;10473629;28;20045;-81
2024/01/14 13:56:56;;;;;;;42.38;20.60;;;;;;;-0.76;100.00;99406.38;10454034;28;20052;-81
2024/01/14 14:01:59;;;;;;;65.70;24.27;;;;;;;-0.67;100.00;99410.34;10465980;28;20047;-80
2024/01/14 14:07:04;;;;;;;47.47;22.98;;;;;;;-1.03;100.00;99395.41;10472010;28;20039;-80
2024/01/14 14:12:09;;;;;;;62.00;22.83;;;;;;;-0.82;100.00;99396.16;10466254;28;20040;-80
2024/01/14 14:17:13;;;;;;;40.58;17.23;;;;;;;-0.84;100.00;99393.59;10478317;28;20515;-80
2024/01/14 14:22:17;;;;;;;51.15;18.17;;;;;;;-0.93;100.00;99390.53;10475683;28;20048;-80
2024/01/14 14:27:20;;;;;;;85.00;29.13;;;;;;;-0.67;100.00;99383.97;10486379;28;20044;-81
2024/01/14 14:32:23;;;;;;;62.65;22.38;;;;;;;-1.20;100.00;99370.75;10477992;28;20420;-81
2024/01/14 14:37:28;;;;;;;84.55;26.17;;;;;;;-1.01;100.00;99372.47;10472733;28;21558;-80
2024/01/14 14:42:31;;;;;;;72.00;26.83;;;;;;;-1.02;100.00;99366.31;10489220;28;20055;-80
2024/01/14 14:47:34;;;;;;;67.15;25.73;;;;;;;-1.08;100.00;99371.06;10517876;28;20040;-80
2024/01/14 14:52:38;;;;;;;67.50;21.88;;;;;;;-0.96;100.00;99360.78;10496405;28;20184;-81
2024/01/14 14:57:41;;;;;;;92.03;29.15;;;;;;;-0.90;100.00;99349.06;10472377;28;20074;-82
2024/01/14 15:02:44;;;;;;;82.10;30.38;;;;;;;-0.78;100.00;99332.63;10485317;28;20068;-80
2024/01/14 15:07:48;;;;;;;72.90;22.85;;;;;;;-0.72;100.00;99340.19;10467865;28;20504;-81
2024/01/14 15:12:53;;;;;;;80.28;27.35;;;;;;;-1.18;100.00;99316.19;10473455;28;20047;-79
2024/01/14 15:17:56;;;;;;;65.05;24.02;;;;;;;-0.92;100.00;99324.56;10470605;28;20725;-81
2024/01/14 15:23:01;;;;;;;71.03;26.25;;;;;;;-0.69;100.00;99320.72;10489159;28;20131;-82
2024/01/14 15:28:04;;;;;;;104.78;36.97;;;;;;;-0.65;100.00;99309.13;10489831;28;20052;-79
2024/01/14 15:33:07;;;;;;;62.08;24.63;;;;;;;-0.88;100.00;99302.38;10483438;28;20058;-80
2024/01/14 15:38:12;;;;;;;54.65;23.48;;;;;;;-0.87;100.00;99298.81;10473259;28;20064;-79
2024/01/14 15:43:15;;;;;;;80.50;28.88;;;;;;;-0.89;100.00;99289.28;10463431;28;20044;-82
2024/01/14 15:48:18;;;;;;;83.38;27.83;;;;;;;-0.73;100.00;99280.50;10476443;28;20055;-80
2024/01/14 15:53:23;;;;;;;75.50;23.63;;;;;;;-0.87;100.00;99280.34;10483692;28;20039;-82
2024/01/14 15:58:26;;;;;;;91.55;31.92;;;;;;;-0.76;100.00;99278.03;10487241;28;20065;-79
2024/01/14 16:03:29;;;;;;;46.50;18.98;;;;;;;-0.83;100.00;99258.16;10483002;28;20056;-79
2024/01/14 16:08:34;;;;;;;99.80;36.30;;;;;;;-1.11;100.00;99247.34;10474400;28;20056;-83
2024/01/14 16:13:37;;;;;;;37.83;14.65;;;;;;;-1.15;100.00;99237.88;10481043;28;20165;-80
2024/01/14 16:18:40;;;;;;;67.40;25.35;;;;;;;-0.58;100.00;99217.31;10468182;28;20480;-83
2024/01/14 16:23:45;;;;;;;48.38;20.02;;;;;;;-1.01;100.00;99236.25;10476252;28;20045;-79
2024/01/14 16:28:49;;;;;;;78.28;26.70;;;;;;;-0.73;100.00;99217.19;10475491;28;20047;-82
2024/01/14 16:33:52;;;;;;;52.45;19.35;;;;;;;-0.82;100.00;99228.25;10466851;28;21224;-81
2024/01/14 16:38:57;;;;;;;72.35;30.38;;;;;;;-1.04;100.00;99206.53;10463028;28;20044;-78
2024/01/14 16:44:02;;;;;;;55.22;21.13;;;;;;;-0.88;100.00;99215.34;10458949;28;20047;-81
2024/01/14 16:49:05;;;;;;;79.05;28.65;;;;;;;-0.79;100.00;99185.88;10475040;28;20048;-80
2024/01/14 16:54:10;;;;;;;63.58;24.15;;;;;;;-0.73;100.00;99188.19;10466244;28;20079;-83
2024/01/14 16:59:13;;;;;;;56.35;25.05;;;;;;;-1.06;100.00;99196.09;10475386;28;20037;-81
2024/01/14 17:04:16;;;;;;;67.93;25.55;;;;;;;-0.59;100.00;99178.69;10480660;28;20058;-82
2024/01/14 17:09:21;;;;;;;73.20;25.20;;;;;;;-0.94;100.00;99176.16;10467013;28;20060;-80
2024/01/14 17:14:24;;;;;;;64.45;25.95;;;;;;;-1.01;100.00;99162.44;10466840;28;20049;-81
2024/01/14 17:19:28;;;;;;;47.72;20.77;;;;;;;-0.96;100.00;99156.91;10483421;28;20056;-79
2024/01/14 17:24:33;;;;;;;57.33;23.83;;;;;;;-0.82;100.00;99153.56;10481010;28;20051;-80
2024/01/14 17:29:36;;;;;;;48.10;22.27;;;;;;;-0.94;100.00;99152.41;10470599;28;20523;-80
2024/01/14 17:34:39;;;;;;;47.83;20.15;;;;;;;-1.00;100.00;99150.97;10466162;28;20058;-80
2024/01/14 17:39:46;;;;;;;57.28;20.42;;;;;;;-0.57;100.00;99131.97;10468279;28;20177;-81
2024/01/14 17:44:49;;;;;;;45.72;17.95;;;;;;;-0.89;100.00;99126.66;10471194;28;20047;-82
2024/01/14 17:49:52;;;;;;;46.80;18.38;;;;;;;-0.99;100.00;99130.72;10472152;28;20052;-81
2024/01/14 17:54:56;;;;;;;74.32;29.70;;;;;;;-0.59;100.00;99125.94;10482402;28;20055;-80
2024/01/14 17:59:59;;;;;;;40.95;16.98;;;;;;;-0.97;100.00;99124.44;10476485;28;20049;-80
2024/01/14 18:05:03;;;;;;;40.67;16.10;;;;;;;-1.15;100.00;99116.66;10489847;28;20117;-80
2024/01/14 18:10:09;;;;;;;44.22;18.42;;;;;;;-1.05;100.00;99102.06;10474049;28;20056;-81
2024/01/14 18:15:14;;;;;;;42.22;19.17;;;;;;;-1.04;100.00;99091.44;10487580;28;20062;-82
2024/01/14 18:20:17;;;;;;;50.45;21.30;;;;;;;-1.09;100.00;99077.66;10491298;28;20418;-80
2024/01/14 18:25:21;;;;;;;35.25;15.27;;;;;;;-1.29;100.00;99078.72;10464352;28;20044;-82
2024/01/14 18:30:24;;;;;;;34.53;15.05;;;;;;;-1.12;100.00;99076.97;10464923;28;20416;-81
2024/01/14 18:35:27;;;;;;;52.67;23.13;;;;;;;-1.20;100.00;99082.66;10465868;28;20423;-80
2024/01/14 18:40:32;;;;;;;54.47;19.33;;;;;;;-1.25;100.00;99063.59;10466414;28;20048;-80
2024/01/14 18:45:36;;;;;;;34.75;12.80;;;;;;;-1.23;100.00;99048.56;10465002;28;20078;-79
2024/01/14 18:50:41;;;;;;;40.28;17.13;;;;;;;-1.01;100.00;99054.38;10466356;28;20075;-81
2024/01/14 18:55:45;;;;;;;46.35;20.25;;;;;;;-0.95;100.00;99067.22;10466798;28;20515;-80
2024/01/14 19:00:48;;;;;;;41.75;16.40;;;;;;;-1.10;100.00;99059.28;10487603;28;20044;-80
2024/01/14 19:05:51;;;;;;;48.72;23.15;;;;;;;-1.20;100.00;99067.69;10494848;28;20077;-81
2024/01/14 19:10:56;;;;;;;54.78;21.67;;;;;;;-1.16;100.00;99055.19;10482755;28;20041;-80
2024/01/14 19:15:58;;;;;;;36.13;16.27;;;;;;;-1.24;100.00;99060.88;10502413;28;20116;-80
2024/01/14 19:21:03;;;;;;;57.58;24.70;;;;;;;-0.97;100.00;99062.97;10498059;28;20059;-84
2024/01/14 19:26:08;;;;;;;34.90;15.30;;;;;;;-1.28;100.00;99067.25;10492727;28;20045;-80
2024/01/14 19:31:11;;;;;;;26.98;14.43;;;;;;;-1.28;100.00;99055.88;10489353;28;20059;-81
2024/01/14 19:36:19;;;;;;;29.00;11.35;;;;;;;-1.01;100.00;99022.75;10500142;28;20045;-80
2024/01/14 19:41:23;;;;;;;47.13;16.48;;;;;;;-0.95;100.00;99026.81;10493504;28;20127;-81
2024/01/14 19:46:27;;;;;;;44.85;18.83;;;;;;;-1.05;100.00;99023.84;10490724;28;20060;-80
2024/01/14 19:51:30;;;;;;;48.85;21.85;;;;;;;-1.00;100.00;99023.59;10506155;28;20079;-79
2024/01/14 19:56:38;;;;;;;54.25;21.30;;;;;;;-1.06;100.00;99022.16;10505324;28;20068;-81
2024/01/14 20:01:42;;;;;;;22.02;11.27;;;;;;;-0.99;100.00;99009.47;10501073;28;20060;-81
2024/01/14 20:06:46;;;;;;;40.00;16.60;;;;;;;-1.02;100.00;99007.00;10506138;28;20066;-80
2024/01/14 20:11:54;;;;;;;51.63;20.45;;;;;;;-1.10;100.00;99011.84;10506771;28;20043;-80
2024/01/14 20:16:58;;;;;;;36.20;17.23;;;;;;;-0.98;100.00;99000.66;10503900;28;20048;-80
2024/01/14 20:22:01;;;;;;;32.70;14.70;;;;;;;-1.40;100.00;98992.38;10508359;28;20108;-80
2024/01/14 20:27:06;;;;;;;48.83;22.85;;;;;;;-1.15;100.00;98996.31;10507300;28;20292;-81
2024/01/14 20:32:09;;;;;;;27.33;12.27;;;;;;;-1.14;100.00;98981.34;10504662;28;20043;-80
2024/01/14 20:37:12;;;;;;;26.80;15.20;;;;;;;-1.05;100.00;98972.91;10506085;28;20039;-80
2024/01/14 20:42:16;;;;;;;40.13;19.30;;;;;;;-1.00;100.00;98969.09;10509352;28;20032;-79
2024/01/14 20:47:19;;;;;;;34.92;14.88;;;;;;;-1.36;100.00;98968.50;10501675;28;20051;-79
2024/01/14 20:52:22;;;;;;;37.17;16.60;;;;;;;-1.43;100.00;98931.09;10504831;28;20087;-79
2024/01/14 20:57:28;;;;;;;29.48;11.25;;;;;;;-1.22;100.00;98940.44;10503633;28;20052;-79
2024/01/14 21:02:32;;;;;;;34.33;14.98;;;;;;;-1.26;100.00;98927.50;10498218;28;20048;-80
2024/01/14 21:07:35;;;;;;;35.15;17.05;;;;;;;-1.68;100.00;98953.47;10509333;28;20112;-79
2024/01/14 21:12:39;;;;;;;46.53;23.92;;;;;;;-1.17;100.00;98927.88;10503514;28;20056;-79
2024/01/14 21:17:42;;;;;;;38.28;16.30;;;;;;;-1.13;100.00;98918.00;10497681;28;20742;-79
2024/01/14 21:22:46;;;;;;;46.92;19.67;;;;;;;-1.31;100.00;98906.72;10500163;28;20108;-81
2024/01/14 21:27:57;;;;;;;33.30;16.88;;;;;;;-1.23;100.00;98899.22;10502146;28;20042;-80
2024/01/14 21:33:00;;;;;;;45.90;19.65;;;;;;;-1.09;100.00;98894.97;10496445;28;20108;-80
2024/01/14 21:38:04;;;;;;;42.58;18.75;;;;;;;-1.27;100.00;98895.06;10502301;28;20044;-80
2024/01/14 21:43:09;;;;;;;41.60;19.40;;;;;;;-1.22;100.00;98879.84;10499187;28;20040;-80
2024/01/14 21:48:12;;;;;;;45.78;22.23;;;;;;;-1.17;100.00;98906.78;10488692;28;20055;-79
2024/01/14 21:53:15;;;;;;;32.28;14.18;;;;;;;-1.03;100.00;98886.72;10489108;28;20040;-81
2024/01/14 21:58:19;;;;;;;35.10;14.25;;;;;;;-1.13;100.00;98890.78;10499516;28;20060;-80
2024/01/14 22:03:23;;;;;;;39.53;19.25;;;;;;;-1.14;100.00;98892.59;10476964;28;20052;-81
2024/01/14 22:08:28;;;;;;;35.75;14.63;;;;;;;-1.20;100.00;98898.22;10470096;28;20048;-81
2024/01/14 22:13:32;;;;;;;41.50;19.88;;;;;;;-0.69;100.00;98884.75;10466361;28;20056;-81
2024/01/14 22:18:35;;;;;;;35.55;17.08;;;;;;;-1.04;100.00;98880.59;10463692;28;20056;-81
2024/01/14 22:23:39;;;;;;;37.17;16.33;;;;;;;-1.04;100.00;98875.31;10463175;28;20052;-82
2024/01/14 22:28:43;;;;;;;28.38;13.80;;;;;;;-1.12;100.00;98858.25;10461577;28;20083;-81
2024/01/14 22:33:48;;;;;;;29.35;15.00;;;;;;;-1.17;100.00;98869.03;10470729;28;20089;-81
2024/01/14 22:38:51;;;;;;;26.63;12.75;;;;;;;-1.17;100.00;98859.34;10462185;28;20063;-79
2024/01/14 22:43:56;;;;;;;29.10;13.60;;;;;;;-1.02;100.00;98856.78;10470544;28;20071;-81
2024/01/14 22:48:59;;;;;;;32.17;13.82;;;;;;;-0.97;100.00;98846.81;10454040;28;20515;-82
2024/01/14 22:54:02;;;;;;;32.88;14.77;;;;;;;-1.05;100.00;98854.31;10457279;28;20075;-81